sensor_id;sensor_type;location;lat;lon;timestamp;P1;durP1;ratioP1;P2;durP2;ratioP2
4638;SDS011;2332;38.646;-9.154;2023-10-08T00:02:23;37.63;;;23.30;;
4638;SDS011;2332;38.646;-9.154;2023-10-08T00:04:50;46.40;;;24.80;;
4638;SDS011;2332;38.646;-9.154;2023-10-08T00:07:16;38.90;;;23.40;;
4638;SDS011;2332;38.646;-9.154;2023-10-08T00:09:46;39.53;;;24.87;;
4638;SDS011;2332;38.646;-9.154;2023-10-08T00:12:12;41.80;;;24.63;;
4638;SDS011;2332;38.646;-9.154;2023-10-08T00:14:38;35.30;;;22.73;;
4638;SDS011;2332;38.646;-9.154;2023-10-08T00:17:10;37.33;;;23.10;;
4638;SDS011;2332;38.646;-9.154;2023-10-08T00:19:35;37.57;;;23.80;;
4638;SDS011;2332;38.646;-9.154;2023-10-08T00:22:03;36.13;;;21.80;;
4638;SDS011;2332;38.646;-9.154;2023-10-08T00:24:32;42.97;;;24.03;;
4638;SDS011;2332;38.646;-9.154;2023-10-08T00:26:58;35.57;;;23.70;;
4638;SDS011;2332;38.646;-9.154;2023-10-08T00:29:25;41.00;;;23.37;;
4638;SDS011;2332;38.646;-9.154;2023-10-08T00:31:51;40.60;;;25.20;;
4638;SDS011;2332;38.646;-9.154;2023-10-08T00:34:17;44.90;;;26.10;;
4638;SDS011;2332;38.646;-9.154;2023-10-08T00:36:45;44.67;;;26.20;;
4638;SDS011;2332;38.646;-9.154;2023-10-08T00:39:11;45.93;;;26.47;;
4638;SDS011;2332;38.646;-9.154;2023-10-08T00:41:40;41.73;;;24.93;;
4638;SDS011;2332;38.646;-9.154;2023-10-08T00:44:08;45.70;;;27.07;;
4638;SDS011;2332;38.646;-9.154;2023-10-08T00:46:33;51.00;;;27.10;;
4638;SDS011;2332;38.646;-9.154;2023-10-08T00:49:04;42.30;;;30.27;;
4638;SDS011;2332;38.646;-9.154;2023-10-08T00:51:50;45.40;;;27.30;;
4638;SDS011;2332;38.646;-9.154;2023-10-08T00:54:39;46.03;;;26.70;;
4638;SDS011;2332;38.646;-9.154;2023-10-08T00:57:30;43.87;;;26.20;;
4638;SDS011;2332;38.646;-9.154;2023-10-08T00:59:55;42.10;;;24.23;;
4638;SDS011;2332;38.646;-9.154;2023-10-08T01:02:29;35.77;;;22.60;;
4638;SDS011;2332;38.646;-9.154;2023-10-08T01:05:10;36.57;;;22.70;;
4638;SDS011;2332;38.646;-9.154;2023-10-08T01:07:37;39.00;;;23.53;;
4638;SDS011;2332;38.646;-9.154;2023-10-08T01:10:07;40.60;;;23.40;;
4638;SDS011;2332;38.646;-9.154;2023-10-08T01:12:35;43.00;;;24.40;;
4638;SDS011;2332;38.646;-9.154;2023-10-08T01:15:09;43.47;;;23.20;;
4638;SDS011;2332;38.646;-9.154;2023-10-08T01:17:49;39.17;;;24.30;;
4638;SDS011;2332;38.646;-9.154;2023-10-08T01:20:24;39.07;;;25.17;;
4638;SDS011;2332;38.646;-9.154;2023-10-08T01:23:03;41.50;;;24.30;;
4638;SDS011;2332;38.646;-9.154;2023-10-08T01:25:29;36.70;;;24.03;;
4638;SDS011;2332;38.646;-9.154;2023-10-08T01:27:58;43.17;;;25.90;;
4638;SDS011;2332;38.646;-9.154;2023-10-08T01:30:33;49.13;;;25.90;;
4638;SDS011;2332;38.646;-9.154;2023-10-08T01:33:00;47.47;;;27.67;;
4638;SDS011;2332;38.646;-9.154;2023-10-08T01:35:28;43.30;;;26.63;;
4638;SDS011;2332;38.646;-9.154;2023-10-08T01:37:53;43.83;;;27.20;;
4638;SDS011;2332;38.646;-9.154;2023-10-08T01:40:21;55.10;;;27.97;;
4638;SDS011;2332;38.646;-9.154;2023-10-08T01:42:50;49.87;;;25.77;;
4638;SDS011;2332;38.646;-9.154;2023-10-08T01:45:16;48.27;;;27.17;;
4638;SDS011;2332;38.646;-9.154;2023-10-08T01:47:43;47.40;;;28.40;;
4638;SDS011;2332;38.646;-9.154;2023-10-08T01:50:08;48.30;;;27.13;;
4638;SDS011;2332;38.646;-9.154;2023-10-08T01:52:46;43.43;;;27.30;;
4638;SDS011;2332;38.646;-9.154;2023-10-08T01:55:12;49.27;;;26.03;;
4638;SDS011;2332;38.646;-9.154;2023-10-08T01:57:42;46.10;;;26.33;;
4638;SDS011;2332;38.646;-9.154;2023-10-08T02:00:08;44.23;;;24.60;;
4638;SDS011;2332;38.646;-9.154;2023-10-08T02:02:34;43.53;;;25.37;;
4638;SDS011;2332;38.646;-9.154;2023-10-08T02:05:00;54.37;;;26.20;;
4638;SDS011;2332;38.646;-9.154;2023-10-08T02:07:25;58.63;;;35.53;;
4638;SDS011;2332;38.646;-9.154;2023-10-08T02:09:50;51.73;;;29.13;;
4638;SDS011;2332;38.646;-9.154;2023-10-08T02:12:16;54.37;;;27.93;;
4638;SDS011;2332;38.646;-9.154;2023-10-08T02:14:41;53.27;;;27.57;;
4638;SDS011;2332;38.646;-9.154;2023-10-08T02:17:06;44.73;;;28.57;;
4638;SDS011;2332;38.646;-9.154;2023-10-08T02:19:34;42.57;;;25.93;;
4638;SDS011;2332;38.646;-9.154;2023-10-08T02:22:02;51.57;;;28.30;;
4638;SDS011;2332;38.646;-9.154;2023-10-08T02:24:30;46.17;;;27.30;;
4638;SDS011;2332;38.646;-9.154;2023-10-08T02:26:56;47.60;;;28.20;;
4638;SDS011;2332;38.646;-9.154;2023-10-08T02:29:25;43.83;;;26.60;;
4638;SDS011;2332;38.646;-9.154;2023-10-08T02:31:51;46.17;;;27.50;;
4638;SDS011;2332;38.646;-9.154;2023-10-08T02:34:18;43.73;;;28.43;;
4638;SDS011;2332;38.646;-9.154;2023-10-08T02:36:44;46.27;;;28.33;;
4638;SDS011;2332;38.646;-9.154;2023-10-08T02:39:12;46.50;;;28.87;;
4638;SDS011;2332;38.646;-9.154;2023-10-08T02:41:47;45.93;;;26.50;;
4638;SDS011;2332;38.646;-9.154;2023-10-08T02:44:13;48.87;;;28.90;;
4638;SDS011;2332;38.646;-9.154;2023-10-08T02:46:40;55.00;;;25.90;;
4638;SDS011;2332;38.646;-9.154;2023-10-08T02:49:07;47.63;;;27.97;;
4638;SDS011;2332;38.646;-9.154;2023-10-08T02:51:35;56.63;;;30.50;;
4638;SDS011;2332;38.646;-9.154;2023-10-08T02:54:01;38.23;;;25.67;;
4638;SDS011;2332;38.646;-9.154;2023-10-08T02:56:30;59.37;;;29.73;;
4638;SDS011;2332;38.646;-9.154;2023-10-08T02:58:57;50.40;;;28.47;;
4638;SDS011;2332;38.646;-9.154;2023-10-08T03:01:22;53.70;;;30.30;;
4638;SDS011;2332;38.646;-9.154;2023-10-08T03:03:48;50.37;;;32.13;;
4638;SDS011;2332;38.646;-9.154;2023-10-08T03:06:13;60.03;;;31.80;;
4638;SDS011;2332;38.646;-9.154;2023-10-08T03:08:40;55.20;;;30.80;;
4638;SDS011;2332;38.646;-9.154;2023-10-08T03:11:08;48.57;;;29.00;;
4638;SDS011;2332;38.646;-9.154;2023-10-08T03:13:42;67.57;;;36.63;;
4638;SDS011;2332;38.646;-9.154;2023-10-08T03:16:11;54.80;;;34.77;;
4638;SDS011;2332;38.646;-9.154;2023-10-08T03:18:38;88.23;;;50.60;;
4638;SDS011;2332;38.646;-9.154;2023-10-08T03:21:07;62.20;;;33.90;;
4638;SDS011;2332;38.646;-9.154;2023-10-08T03:23:45;51.80;;;33.13;;
4638;SDS011;2332;38.646;-9.154;2023-10-08T03:26:12;59.03;;;35.57;;
4638;SDS011;2332;38.646;-9.154;2023-10-08T03:29:01;55.97;;;31.23;;
4638;SDS011;2332;38.646;-9.154;2023-10-08T03:31:30;62.63;;;31.70;;
4638;SDS011;2332;38.646;-9.154;2023-10-08T03:34:15;55.43;;;31.30;;
4638;SDS011;2332;38.646;-9.154;2023-10-08T03:36:41;61.83;;;33.40;;
4638;SDS011;2332;38.646;-9.154;2023-10-08T03:39:10;55.77;;;35.20;;
4638;SDS011;2332;38.646;-9.154;2023-10-08T03:41:39;52.23;;;33.07;;
4638;SDS011;2332;38.646;-9.154;2023-10-08T03:44:08;58.83;;;35.50;;
4638;SDS011;2332;38.646;-9.154;2023-10-08T03:46:39;66.40;;;36.33;;
4638;SDS011;2332;38.646;-9.154;2023-10-08T03:49:11;63.43;;;36.00;;
4638;SDS011;2332;38.646;-9.154;2023-10-08T03:51:50;58.20;;;35.57;;
4638;SDS011;2332;38.646;-9.154;2023-10-08T03:54:19;59.00;;;36.77;;
4638;SDS011;2332;38.646;-9.154;2023-10-08T03:56:46;58.67;;;36.07;;
4638;SDS011;2332;38.646;-9.154;2023-10-08T03:59:13;61.17;;;39.07;;
4638;SDS011;2332;38.646;-9.154;2023-10-08T04:01:40;84.77;;;43.43;;
4638;SDS011;2332;38.646;-9.154;2023-10-08T04:04:06;68.50;;;40.20;;
4638;SDS011;2332;38.646;-9.154;2023-10-08T04:06:37;64.03;;;38.80;;
4638;SDS011;2332;38.646;-9.154;2023-10-08T04:09:04;65.00;;;39.87;;
4638;SDS011;2332;38.646;-9.154;2023-10-08T04:11:43;67.63;;;41.83;;
4638;SDS011;2332;38.646;-9.154;2023-10-08T04:14:30;71.47;;;43.53;;
4638;SDS011;2332;38.646;-9.154;2023-10-08T04:16:56;69.13;;;43.73;;
4638;SDS011;2332;38.646;-9.154;2023-10-08T04:19:24;84.90;;;44.47;;
4638;SDS011;2332;38.646;-9.154;2023-10-08T04:21:54;78.40;;;43.43;;
4638;SDS011;2332;38.646;-9.154;2023-10-08T04:24:23;74.67;;;42.90;;
4638;SDS011;2332;38.646;-9.154;2023-10-08T04:26:54;64.00;;;41.43;;
4638;SDS011;2332;38.646;-9.154;2023-10-08T04:29:21;72.60;;;41.40;;
4638;SDS011;2332;38.646;-9.154;2023-10-08T04:31:48;70.00;;;39.80;;
4638;SDS011;2332;38.646;-9.154;2023-10-08T04:34:19;69.60;;;38.83;;
4638;SDS011;2332;38.646;-9.154;2023-10-08T04:36:48;68.17;;;36.30;;
4638;SDS011;2332;38.646;-9.154;2023-10-08T04:39:26;63.53;;;37.30;;
4638;SDS011;2332;38.646;-9.154;2023-10-08T04:41:57;58.47;;;35.10;;
4638;SDS011;2332;38.646;-9.154;2023-10-08T04:44:25;49.40;;;33.03;;
4638;SDS011;2332;38.646;-9.154;2023-10-08T04:46:51;55.03;;;30.97;;
4638;SDS011;2332;38.646;-9.154;2023-10-08T04:49:19;58.63;;;30.33;;
4638;SDS011;2332;38.646;-9.154;2023-10-08T04:51:54;54.90;;;29.43;;
4638;SDS011;2332;38.646;-9.154;2023-10-08T04:54:25;53.90;;;29.53;;
4638;SDS011;2332;38.646;-9.154;2023-10-08T04:56:55;52.13;;;30.50;;
4638;SDS011;2332;38.646;-9.154;2023-10-08T04:59:22;55.17;;;32.87;;
4638;SDS011;2332;38.646;-9.154;2023-10-08T05:01:48;53.83;;;30.47;;
4638;SDS011;2332;38.646;-9.154;2023-10-08T05:04:21;55.30;;;31.93;;
4638;SDS011;2332;38.646;-9.154;2023-10-08T05:06:52;57.27;;;32.30;;
4638;SDS011;2332;38.646;-9.154;2023-10-08T05:09:26;57.40;;;32.73;;
4638;SDS011;2332;38.646;-9.154;2023-10-08T05:12:10;54.40;;;33.43;;
4638;SDS011;2332;38.646;-9.154;2023-10-08T05:14:53;61.33;;;34.60;;
4638;SDS011;2332;38.646;-9.154;2023-10-08T05:17:45;54.50;;;33.03;;
4638;SDS011;2332;38.646;-9.154;2023-10-08T05:20:17;65.07;;;34.87;;
4638;SDS011;2332;38.646;-9.154;2023-10-08T05:23:09;66.00;;;35.77;;
4638;SDS011;2332;38.646;-9.154;2023-10-08T05:25:51;48.90;;;32.10;;
4638;SDS011;2332;38.646;-9.154;2023-10-08T05:28:38;62.90;;;35.23;;
4638;SDS011;2332;38.646;-9.154;2023-10-08T05:31:33;60.83;;;35.10;;
4638;SDS011;2332;38.646;-9.154;2023-10-08T05:34:08;57.90;;;34.20;;
4638;SDS011;2332;38.646;-9.154;2023-10-08T05:36:42;58.00;;;35.17;;
4638;SDS011;2332;38.646;-9.154;2023-10-08T05:39:36;69.67;;;34.63;;
4638;SDS011;2332;38.646;-9.154;2023-10-08T05:42:04;64.13;;;34.60;;
4638;SDS011;2332;38.646;-9.154;2023-10-08T05:44:42;71.40;;;35.20;;
4638;SDS011;2332;38.646;-9.154;2023-10-08T05:47:26;60.50;;;35.43;;
4638;SDS011;2332;38.646;-9.154;2023-10-08T05:50:14;65.40;;;36.03;;
4638;SDS011;2332;38.646;-9.154;2023-10-08T05:52:46;62.97;;;35.30;;
4638;SDS011;2332;38.646;-9.154;2023-10-08T05:55:37;61.13;;;37.00;;
4638;SDS011;2332;38.646;-9.154;2023-10-08T05:58:12;68.63;;;35.13;;
4638;SDS011;2332;38.646;-9.154;2023-10-08T06:00:45;61.93;;;35.10;;
4638;SDS011;2332;38.646;-9.154;2023-10-08T06:03:26;57.63;;;33.50;;
4638;SDS011;2332;38.646;-9.154;2023-10-08T06:06:01;56.70;;;33.43;;
4638;SDS011;2332;38.646;-9.154;2023-10-08T06:08:42;62.27;;;31.67;;
4638;SDS011;2332;38.646;-9.154;2023-10-08T06:11:26;56.63;;;29.00;;
4638;SDS011;2332;38.646;-9.154;2023-10-08T06:14:14;50.03;;;29.67;;
4638;SDS011;2332;38.646;-9.154;2023-10-08T06:16:53;48.17;;;27.67;;
4638;SDS011;2332;38.646;-9.154;2023-10-08T06:19:38;45.10;;;26.53;;
4638;SDS011;2332;38.646;-9.154;2023-10-08T06:22:04;50.43;;;27.30;;
4638;SDS011;2332;38.646;-9.154;2023-10-08T06:24:29;45.63;;;27.00;;
4638;SDS011;2332;38.646;-9.154;2023-10-08T06:26:55;38.30;;;25.77;;
4638;SDS011;2332;38.646;-9.154;2023-10-08T06:29:20;36.03;;;26.07;;
4638;SDS011;2332;38.646;-9.154;2023-10-08T06:31:53;37.43;;;24.13;;
4638;SDS011;2332;38.646;-9.154;2023-10-08T06:34:20;45.53;;;26.00;;
4638;SDS011;2332;38.646;-9.154;2023-10-08T06:36:49;48.73;;;25.27;;
4638;SDS011;2332;38.646;-9.154;2023-10-08T06:39:22;40.90;;;25.40;;
4638;SDS011;2332;38.646;-9.154;2023-10-08T06:42:13;45.83;;;25.00;;
4638;SDS011;2332;38.646;-9.154;2023-10-08T06:44:39;37.73;;;23.33;;
4638;SDS011;2332;38.646;-9.154;2023-10-08T06:47:08;38.57;;;24.17;;
4638;SDS011;2332;38.646;-9.154;2023-10-08T06:49:34;45.27;;;25.83;;
4638;SDS011;2332;38.646;-9.154;2023-10-08T06:52:01;42.17;;;25.43;;
4638;SDS011;2332;38.646;-9.154;2023-10-08T06:54:26;45.37;;;25.10;;
4638;SDS011;2332;38.646;-9.154;2023-10-08T06:56:55;40.33;;;24.30;;
4638;SDS011;2332;38.646;-9.154;2023-10-08T06:59:21;39.30;;;24.80;;
4638;SDS011;2332;38.646;-9.154;2023-10-08T07:01:50;34.40;;;24.20;;
4638;SDS011;2332;38.646;-9.154;2023-10-08T07:04:16;39.47;;;22.00;;
4638;SDS011;2332;38.646;-9.154;2023-10-08T07:06:43;39.10;;;22.97;;
4638;SDS011;2332;38.646;-9.154;2023-10-08T07:09:10;42.67;;;23.57;;
4638;SDS011;2332;38.646;-9.154;2023-10-08T07:11:57;42.20;;;24.10;;
4638;SDS011;2332;38.646;-9.154;2023-10-08T07:14:23;40.80;;;25.60;;
4638;SDS011;2332;38.646;-9.154;2023-10-08T07:16:52;44.47;;;25.97;;
4638;SDS011;2332;38.646;-9.154;2023-10-08T07:19:20;40.90;;;25.03;;
4638;SDS011;2332;38.646;-9.154;2023-10-08T07:21:48;42.13;;;23.50;;
4638;SDS011;2332;38.646;-9.154;2023-10-08T07:24:19;36.83;;;24.97;;
4638;SDS011;2332;38.646;-9.154;2023-10-08T07:26:47;44.30;;;25.13;;
4638;SDS011;2332;38.646;-9.154;2023-10-08T07:29:13;41.23;;;26.23;;
4638;SDS011;2332;38.646;-9.154;2023-10-08T07:31:42;47.47;;;25.80;;
4638;SDS011;2332;38.646;-9.154;2023-10-08T07:34:08;43.27;;;23.47;;
4638;SDS011;2332;38.646;-9.154;2023-10-08T07:36:46;34.73;;;22.83;;
4638;SDS011;2332;38.646;-9.154;2023-10-08T07:39:12;32.93;;;22.40;;
4638;SDS011;2332;38.646;-9.154;2023-10-08T07:41:56;32.40;;;22.30;;
4638;SDS011;2332;38.646;-9.154;2023-10-08T07:44:24;38.17;;;22.70;;
4638;SDS011;2332;38.646;-9.154;2023-10-08T07:46:50;38.50;;;20.77;;
4638;SDS011;2332;38.646;-9.154;2023-10-08T07:49:16;32.70;;;21.07;;
4638;SDS011;2332;38.646;-9.154;2023-10-08T07:51:42;33.60;;;22.83;;
4638;SDS011;2332;38.646;-9.154;2023-10-08T07:54:16;33.17;;;20.47;;
4638;SDS011;2332;38.646;-9.154;2023-10-08T07:56:44;33.50;;;20.30;;
4638;SDS011;2332;38.646;-9.154;2023-10-08T07:59:10;30.60;;;21.00;;
4638;SDS011;2332;38.646;-9.154;2023-10-08T08:01:39;29.93;;;20.40;;
4638;SDS011;2332;38.646;-9.154;2023-10-08T08:04:08;29.70;;;19.47;;
4638;SDS011;2332;38.646;-9.154;2023-10-08T08:06:36;30.13;;;21.27;;
4638;SDS011;2332;38.646;-9.154;2023-10-08T08:09:02;28.33;;;19.40;;
4638;SDS011;2332;38.646;-9.154;2023-10-08T08:11:33;31.37;;;20.33;;
4638;SDS011;2332;38.646;-9.154;2023-10-08T08:14:02;24.33;;;17.93;;
4638;SDS011;2332;38.646;-9.154;2023-10-08T08:16:33;28.00;;;18.30;;
4638;SDS011;2332;38.646;-9.154;2023-10-08T08:19:01;23.80;;;17.27;;
4638;SDS011;2332;38.646;-9.154;2023-10-08T08:21:26;42.63;;;17.33;;
4638;SDS011;2332;38.646;-9.154;2023-10-08T08:23:55;36.03;;;16.20;;
4638;SDS011;2332;38.646;-9.154;2023-10-08T08:26:29;30.00;;;17.00;;
4638;SDS011;2332;38.646;-9.154;2023-10-08T08:29:04;25.50;;;16.67;;
4638;SDS011;2332;38.646;-9.154;2023-10-08T08:31:30;26.80;;;17.47;;
4638;SDS011;2332;38.646;-9.154;2023-10-08T08:34:01;30.23;;;17.50;;
4638;SDS011;2332;38.646;-9.154;2023-10-08T08:36:35;33.60;;;18.87;;
4638;SDS011;2332;38.646;-9.154;2023-10-08T08:39:04;29.60;;;19.03;;
4638;SDS011;2332;38.646;-9.154;2023-10-08T08:41:30;22.37;;;17.10;;
4638;SDS011;2332;38.646;-9.154;2023-10-08T08:43:55;39.30;;;19.50;;
4638;SDS011;2332;38.646;-9.154;2023-10-08T08:46:31;26.47;;;17.37;;
4638;SDS011;2332;38.646;-9.154;2023-10-08T08:48:57;26.73;;;18.00;;
4638;SDS011;2332;38.646;-9.154;2023-10-08T08:51:25;34.20;;;19.50;;
4638;SDS011;2332;38.646;-9.154;2023-10-08T08:53:51;25.70;;;17.90;;
4638;SDS011;2332;38.646;-9.154;2023-10-08T08:56:17;30.93;;;19.17;;
4638;SDS011;2332;38.646;-9.154;2023-10-08T08:58:43;26.80;;;17.80;;
4638;SDS011;2332;38.646;-9.154;2023-10-08T09:01:10;21.93;;;16.77;;
4638;SDS011;2332;38.646;-9.154;2023-10-08T09:03:38;28.27;;;16.43;;
4638;SDS011;2332;38.646;-9.154;2023-10-08T09:06:04;24.57;;;14.80;;
4638;SDS011;2332;38.646;-9.154;2023-10-08T09:08:36;28.83;;;17.10;;
4638;SDS011;2332;38.646;-9.154;2023-10-08T09:11:02;27.47;;;16.60;;
4638;SDS011;2332;38.646;-9.154;2023-10-08T09:13:29;27.03;;;16.17;;
4638;SDS011;2332;38.646;-9.154;2023-10-08T09:16:02;26.93;;;16.73;;
4638;SDS011;2332;38.646;-9.154;2023-10-08T09:18:31;25.73;;;16.57;;
4638;SDS011;2332;38.646;-9.154;2023-10-08T09:21:06;26.60;;;16.90;;
4638;SDS011;2332;38.646;-9.154;2023-10-08T09:23:37;35.87;;;15.90;;
4638;SDS011;2332;38.646;-9.154;2023-10-08T09:26:03;24.53;;;15.87;;
4638;SDS011;2332;38.646;-9.154;2023-10-08T09:28:30;28.60;;;16.77;;
4638;SDS011;2332;38.646;-9.154;2023-10-08T09:30:57;23.20;;;16.93;;
4638;SDS011;2332;38.646;-9.154;2023-10-08T09:33:24;24.93;;;17.53;;
4638;SDS011;2332;38.646;-9.154;2023-10-08T09:35:49;25.93;;;16.07;;
4638;SDS011;2332;38.646;-9.154;2023-10-08T09:38:19;24.43;;;16.77;;
4638;SDS011;2332;38.646;-9.154;2023-10-08T09:40:49;24.93;;;15.80;;
4638;SDS011;2332;38.646;-9.154;2023-10-08T09:43:14;21.03;;;14.43;;
4638;SDS011;2332;38.646;-9.154;2023-10-08T09:45:47;23.13;;;14.67;;
4638;SDS011;2332;38.646;-9.154;2023-10-08T09:48:12;21.00;;;15.07;;
4638;SDS011;2332;38.646;-9.154;2023-10-08T09:50:41;19.83;;;14.07;;
4638;SDS011;2332;38.646;-9.154;2023-10-08T09:53:07;21.07;;;15.10;;
4638;SDS011;2332;38.646;-9.154;2023-10-08T09:55:36;18.20;;;14.93;;
4638;SDS011;2332;38.646;-9.154;2023-10-08T09:58:01;24.03;;;15.70;;
4638;SDS011;2332;38.646;-9.154;2023-10-08T10:00:27;23.37;;;14.23;;
4638;SDS011;2332;38.646;-9.154;2023-10-08T10:02:59;25.00;;;15.03;;
4638;SDS011;2332;38.646;-9.154;2023-10-08T10:05:31;24.63;;;15.50;;
4638;SDS011;2332;38.646;-9.154;2023-10-08T10:07:57;24.00;;;15.20;;
4638;SDS011;2332;38.646;-9.154;2023-10-08T10:10:26;23.83;;;16.33;;
4638;SDS011;2332;38.646;-9.154;2023-10-08T10:12:52;16.87;;;13.17;;
4638;SDS011;2332;38.646;-9.154;2023-10-08T10:15:20;27.00;;;14.07;;
4638;SDS011;2332;38.646;-9.154;2023-10-08T10:17:47;27.90;;;14.30;;
4638;SDS011;2332;38.646;-9.154;2023-10-08T10:20:14;17.33;;;13.97;;
4638;SDS011;2332;38.646;-9.154;2023-10-08T10:22:40;19.70;;;13.53;;
4638;SDS011;2332;38.646;-9.154;2023-10-08T10:25:08;25.57;;;14.60;;
4638;SDS011;2332;38.646;-9.154;2023-10-08T10:30:24;17.30;;;13.23;;
4638;SDS011;2332;38.646;-9.154;2023-10-08T10:32:53;16.30;;;11.73;;
4638;SDS011;2332;38.646;-9.154;2023-10-08T10:35:19;20.10;;;12.23;;
4638;SDS011;2332;38.646;-9.154;2023-10-08T10:37:47;20.87;;;12.03;;
4638;SDS011;2332;38.646;-9.154;2023-10-08T10:40:23;15.30;;;11.43;;
4638;SDS011;2332;38.646;-9.154;2023-10-08T10:43:04;27.90;;;11.40;;
4638;SDS011;2332;38.646;-9.154;2023-10-08T10:45:31;20.33;;;11.90;;
4638;SDS011;2332;38.646;-9.154;2023-10-08T10:48:01;20.00;;;11.57;;
4638;SDS011;2332;38.646;-9.154;2023-10-08T10:50:37;29.67;;;10.37;;
4638;SDS011;2332;38.646;-9.154;2023-10-08T10:53:13;19.80;;;9.87;;
4638;SDS011;2332;38.646;-9.154;2023-10-08T10:55:38;14.63;;;8.70;;
4638;SDS011;2332;38.646;-9.154;2023-10-08T10:58:11;15.93;;;9.37;;
4638;SDS011;2332;38.646;-9.154;2023-10-08T11:00:36;13.57;;;9.40;;
4638;SDS011;2332;38.646;-9.154;2023-10-08T11:03:02;19.10;;;9.87;;
4638;SDS011;2332;38.646;-9.154;2023-10-08T11:05:29;10.60;;;8.17;;
4638;SDS011;2332;38.646;-9.154;2023-10-08T11:07:56;17.33;;;8.70;;
4638;SDS011;2332;38.646;-9.154;2023-10-08T11:10:38;20.30;;;8.10;;
4638;SDS011;2332;38.646;-9.154;2023-10-08T11:13:06;20.20;;;9.07;;
4638;SDS011;2332;38.646;-9.154;2023-10-08T11:15:40;8.57;;;7.60;;
4638;SDS011;2332;38.646;-9.154;2023-10-08T11:18:13;19.67;;;8.93;;
4638;SDS011;2332;38.646;-9.154;2023-10-08T11:20:40;27.27;;;7.47;;
4638;SDS011;2332;38.646;-9.154;2023-10-08T11:23:06;16.33;;;8.40;;
4638;SDS011;2332;38.646;-9.154;2023-10-08T11:25:53;14.80;;;7.60;;
4638;SDS011;2332;38.646;-9.154;2023-10-08T11:28:18;12.40;;;7.40;;
4638;SDS011;2332;38.646;-9.154;2023-10-08T11:30:44;14.90;;;7.30;;
4638;SDS011;2332;38.646;-9.154;2023-10-08T11:33:12;9.33;;;8.27;;
4638;SDS011;2332;38.646;-9.154;2023-10-08T11:36:01;13.37;;;8.23;;
4638;SDS011;2332;38.646;-9.154;2023-10-08T11:38:25;7.67;;;6.87;;
4638;SDS011;2332;38.646;-9.154;2023-10-08T11:40:52;15.10;;;8.60;;
4638;SDS011;2332;38.646;-9.154;2023-10-08T11:43:24;13.60;;;7.90;;
4638;SDS011;2332;38.646;-9.154;2023-10-08T11:45:50;11.70;;;8.23;;
4638;SDS011;2332;38.646;-9.154;2023-10-08T11:48:15;13.13;;;7.37;;
4638;SDS011;2332;38.646;-9.154;2023-10-08T11:51:01;16.10;;;8.33;;
4638;SDS011;2332;38.646;-9.154;2023-10-08T11:53:30;11.90;;;7.80;;
4638;SDS011;2332;38.646;-9.154;2023-10-08T11:55:56;12.87;;;7.57;;
4638;SDS011;2332;38.646;-9.154;2023-10-08T11:58:22;9.90;;;7.03;;
4638;SDS011;2332;38.646;-9.154;2023-10-08T12:01:02;10.73;;;7.30;;
4638;SDS011;2332;38.646;-9.154;2023-10-08T12:03:28;18.37;;;7.73;;
4638;SDS011;2332;38.646;-9.154;2023-10-08T12:05:54;18.80;;;8.13;;
4638;SDS011;2332;38.646;-9.154;2023-10-08T12:08:24;12.13;;;6.93;;
4638;SDS011;2332;38.646;-9.154;2023-10-08T12:10:52;11.97;;;7.80;;
4638;SDS011;2332;38.646;-9.154;2023-10-08T12:13:19;18.77;;;7.23;;
4638;SDS011;2332;38.646;-9.154;2023-10-08T12:15:50;11.73;;;7.23;;
4638;SDS011;2332;38.646;-9.154;2023-10-08T12:18:16;9.40;;;6.90;;
4638;SDS011;2332;38.646;-9.154;2023-10-08T12:20:50;12.50;;;7.73;;
4638;SDS011;2332;38.646;-9.154;2023-10-08T12:23:15;17.07;;;7.87;;
4638;SDS011;2332;38.646;-9.154;2023-10-08T12:25:50;13.20;;;7.83;;
4638;SDS011;2332;38.646;-9.154;2023-10-08T12:28:17;11.40;;;7.00;;
4638;SDS011;2332;38.646;-9.154;2023-10-08T12:30:44;17.73;;;8.30;;
4638;SDS011;2332;38.646;-9.154;2023-10-08T12:33:09;12.50;;;7.93;;
4638;SDS011;2332;38.646;-9.154;2023-10-08T12:35:41;15.83;;;7.23;;
4638;SDS011;2332;38.646;-9.154;2023-10-08T12:38:06;16.77;;;7.23;;
4638;SDS011;2332;38.646;-9.154;2023-10-08T12:40:34;10.50;;;7.20;;
4638;SDS011;2332;38.646;-9.154;2023-10-08T12:43:12;9.77;;;7.00;;
4638;SDS011;2332;38.646;-9.154;2023-10-08T12:45:38;11.10;;;6.70;;
4638;SDS011;2332;38.646;-9.154;2023-10-08T12:48:03;29.93;;;21.07;;
4638;SDS011;2332;38.646;-9.154;2023-10-08T12:50:30;12.87;;;9.40;;
4638;SDS011;2332;38.646;-9.154;2023-10-08T12:53:04;93.63;;;69.97;;
4638;SDS011;2332;38.646;-9.154;2023-10-08T12:55:30;23.23;;;9.80;;
4638;SDS011;2332;38.646;-9.154;2023-10-08T12:57:56;12.70;;;10.23;;
4638;SDS011;2332;38.646;-9.154;2023-10-08T13:00:31;13.07;;;6.53;;
4638;SDS011;2332;38.646;-9.154;2023-10-08T13:02:56;27.43;;;14.33;;
4638;SDS011;2332;38.646;-9.154;2023-10-08T13:05:23;20.13;;;8.53;;
4638;SDS011;2332;38.646;-9.154;2023-10-08T13:07:57;18.70;;;10.23;;
4638;SDS011;2332;38.646;-9.154;2023-10-08T13:10:28;12.77;;;7.20;;
4638;SDS011;2332;38.646;-9.154;2023-10-08T13:12:54;14.03;;;6.50;;
4638;SDS011;2332;38.646;-9.154;2023-10-08T13:15:19;14.43;;;6.57;;
4638;SDS011;2332;38.646;-9.154;2023-10-08T13:17:45;20.23;;;6.87;;
4638;SDS011;2332;38.646;-9.154;2023-10-08T13:20:13;19.20;;;7.00;;
4638;SDS011;2332;38.646;-9.154;2023-10-08T13:22:39;9.97;;;6.07;;
4638;SDS011;2332;38.646;-9.154;2023-10-08T13:25:05;11.07;;;6.40;;
4638;SDS011;2332;38.646;-9.154;2023-10-08T13:27:31;8.60;;;5.73;;
4638;SDS011;2332;38.646;-9.154;2023-10-08T13:29:56;7.83;;;6.07;;
4638;SDS011;2332;38.646;-9.154;2023-10-08T13:32:22;12.73;;;6.23;;
4638;SDS011;2332;38.646;-9.154;2023-10-08T13:34:48;19.80;;;6.07;;
4638;SDS011;2332;38.646;-9.154;2023-10-08T13:37:14;7.03;;;5.07;;
4638;SDS011;2332;38.646;-9.154;2023-10-08T13:39:42;15.60;;;5.37;;
4638;SDS011;2332;38.646;-9.154;2023-10-08T13:42:07;13.53;;;6.53;;
4638;SDS011;2332;38.646;-9.154;2023-10-08T13:44:33;14.27;;;5.90;;
4638;SDS011;2332;38.646;-9.154;2023-10-08T13:47:00;15.57;;;7.00;;
4638;SDS011;2332;38.646;-9.154;2023-10-08T13:49:30;12.90;;;5.00;;
4638;SDS011;2332;38.646;-9.154;2023-10-08T13:51:56;10.00;;;4.70;;
4638;SDS011;2332;38.646;-9.154;2023-10-08T13:54:21;6.67;;;5.37;;
4638;SDS011;2332;38.646;-9.154;2023-10-08T13:56:47;12.97;;;5.50;;
4638;SDS011;2332;38.646;-9.154;2023-10-08T13:59:15;5.63;;;4.73;;
4638;SDS011;2332;38.646;-9.154;2023-10-08T14:01:42;11.87;;;5.20;;
4638;SDS011;2332;38.646;-9.154;2023-10-08T14:04:16;11.50;;;7.03;;
4638;SDS011;2332;38.646;-9.154;2023-10-08T14:06:42;18.83;;;9.10;;
4638;SDS011;2332;38.646;-9.154;2023-10-08T14:09:13;15.20;;;10.00;;
4638;SDS011;2332;38.646;-9.154;2023-10-08T14:11:46;9.27;;;4.93;;
4638;SDS011;2332;38.646;-9.154;2023-10-08T14:14:11;14.77;;;5.27;;
4638;SDS011;2332;38.646;-9.154;2023-10-08T14:16:40;14.80;;;5.37;;
4638;SDS011;2332;38.646;-9.154;2023-10-08T14:19:12;12.23;;;5.30;;
4638;SDS011;2332;38.646;-9.154;2023-10-08T14:21:38;16.00;;;5.00;;
4638;SDS011;2332;38.646;-9.154;2023-10-08T14:24:14;5.90;;;4.80;;
4638;SDS011;2332;38.646;-9.154;2023-10-08T14:26:41;8.80;;;5.40;;
4638;SDS011;2332;38.646;-9.154;2023-10-08T14:29:07;10.23;;;5.13;;
4638;SDS011;2332;38.646;-9.154;2023-10-08T14:31:36;5.67;;;5.07;;
4638;SDS011;2332;38.646;-9.154;2023-10-08T14:34:04;8.20;;;5.10;;
4638;SDS011;2332;38.646;-9.154;2023-10-08T14:36:42;16.63;;;5.90;;
4638;SDS011;2332;38.646;-9.154;2023-10-08T14:39:26;18.33;;;5.63;;
4638;SDS011;2332;38.646;-9.154;2023-10-08T14:42:10;9.93;;;5.23;;
4638;SDS011;2332;38.646;-9.154;2023-10-08T14:44:54;8.47;;;4.97;;
4638;SDS011;2332;38.646;-9.154;2023-10-08T14:47:19;20.60;;;5.33;;
4638;SDS011;2332;38.646;-9.154;2023-10-08T14:49:45;10.60;;;4.77;;
4638;SDS011;2332;38.646;-9.154;2023-10-08T14:52:13;10.73;;;4.90;;
4638;SDS011;2332;38.646;-9.154;2023-10-08T14:54:39;13.60;;;5.10;;
4638;SDS011;2332;38.646;-9.154;2023-10-08T14:57:06;10.73;;;4.43;;
4638;SDS011;2332;38.646;-9.154;2023-10-08T14:59:32;8.60;;;4.60;;